createdAt,value
2022-11-29T00:01:10.930Z,2.63
2022-11-29T00:03:37.576Z,2.85
2022-11-29T00:08:31.319Z,2.63
2022-11-29T00:11:03.355Z,2.25
2022-11-29T00:13:29.764Z,2.30
2022-11-29T00:15:56.145Z,2.33
2022-11-29T00:18:22.541Z,2.47
2022-11-29T00:20:48.950Z,2.42
2022-11-29T00:23:15.339Z,2.50
2022-11-29T00:25:41.721Z,2.80
2022-11-29T00:28:08.152Z,2.63
2022-11-29T00:30:34.874Z,2.40
2022-11-29T00:33:02.989Z,2.25
2022-11-29T00:35:29.391Z,2.55
2022-11-29T00:37:55.803Z,2.55
2022-11-29T00:40:22.205Z,2.35
2022-11-29T00:42:48.618Z,2.35
2022-11-29T00:45:15.012Z,2.25
2022-11-29T00:47:41.460Z,4.47
2022-11-29T00:50:08.222Z,4.55
2022-11-29T00:52:34.626Z,3.20
2022-11-29T00:55:01.090Z,2.22
2022-11-29T00:57:27.631Z,2.13
2022-11-29T01:02:20.389Z,2.20
2022-11-29T01:04:47.211Z,2.35
2022-11-29T01:07:13.802Z,2.70
2022-11-29T01:09:40.325Z,2.58
2022-11-29T01:12:06.890Z,2.28
2022-11-29T01:14:33.316Z,2.50
2022-11-29T01:16:59.826Z,2.60
2022-11-29T01:19:26.270Z,2.38
2022-11-29T01:21:52.724Z,2.08
2022-11-29T01:24:19.111Z,2.63
2022-11-29T01:26:45.778Z,3.10
2022-11-29T01:31:39.296Z,2.63
2022-11-29T01:34:06.896Z,2.17
2022-11-29T01:36:34.390Z,2.47
2022-11-29T01:39:02.397Z,2.58
2022-11-29T01:41:32.075Z,2.70
2022-11-29T01:44:06.907Z,2.72
2022-11-29T01:46:39.115Z,2.30
2022-11-29T01:49:22.125Z,2.47
2022-11-29T01:51:55.883Z,3.30
2022-11-29T01:54:22.701Z,2.65
2022-11-29T01:56:51.616Z,2.92
2022-11-29T01:59:22.066Z,2.38
2022-11-29T02:01:48.637Z,2.33
2022-11-29T02:04:17.418Z,2.72
2022-11-29T02:06:44.392Z,2.53
2022-11-29T02:09:19.747Z,2.70
2022-11-29T02:12:11.706Z,2.95
2022-11-29T02:15:06.766Z,2.85
2022-11-29T02:17:44.948Z,2.25
2022-11-29T02:20:26.607Z,2.58
2022-11-29T02:22:56.027Z,2.55
2022-11-29T02:26:00.708Z,2.63
2022-11-29T02:28:36.610Z,2.78
2022-11-29T02:31:39.908Z,2.42
2022-11-29T02:34:06.293Z,3.60
2022-11-29T02:36:45.359Z,3.25
2022-11-29T02:39:36.399Z,3.15
2022-11-29T02:42:52.583Z,2.97
2022-11-29T02:45:41.755Z,2.80
2022-11-29T02:48:27.538Z,2.90
2022-11-29T02:51:19.792Z,2.47
2022-11-29T02:54:16.637Z,2.85
2022-11-29T02:56:46.219Z,2.80
2022-11-29T02:59:16.654Z,2.53
2022-11-29T03:01:52.416Z,2.67
2022-11-29T03:05:10.320Z,2.45
2022-11-29T03:07:45.791Z,2.42
2022-11-29T03:10:49.179Z,2.40
2022-11-29T03:13:45.425Z,2.65
2022-11-29T03:16:28.532Z,2.50
2022-11-29T03:19:00.550Z,2.35
2022-11-29T03:21:41.782Z,3.08
2022-11-29T03:24:45.111Z,3.00
2022-11-29T03:27:22.068Z,2.50
2022-11-29T03:29:56.127Z,2.80
2022-11-29T03:32:29.881Z,2.72
2022-11-29T03:35:07.050Z,2.80
2022-11-29T03:40:06.745Z,2.42
2022-11-29T03:42:41.062Z,2.25
2022-11-29T03:45:15.289Z,3.00
2022-11-29T03:47:51.285Z,2.53
2022-11-29T03:50:25.018Z,2.47
2022-11-29T03:53:00.156Z,2.75
2022-11-29T03:55:50.535Z,2.53
2022-11-29T03:58:48.611Z,2.50
2022-11-29T04:01:51.013Z,2.42
2022-11-29T04:04:27.516Z,2.67
2022-11-29T04:07:18.554Z,2.53
2022-11-29T04:10:11.729Z,2.42
2022-11-29T04:12:57.299Z,2.63
2022-11-29T04:16:04.129Z,2.70
2022-11-29T04:18:46.708Z,2.63
2022-11-29T04:21:43.258Z,2.50
2022-11-29T04:24:38.917Z,2.30
2022-11-29T04:27:17.575Z,2.60
2022-11-29T04:30:02.565Z,2.40
2022-11-29T04:33:10.098Z,2.50
2022-11-29T04:35:42.841Z,2.72
2022-11-29T04:38:45.416Z,2.42
2022-11-29T04:41:20.856Z,2.50
2022-11-29T04:43:59.284Z,2.72
2022-11-29T04:46:47.781Z,2.38
2022-11-29T04:49:52.041Z,1.90
2022-11-29T04:52:36.664Z,2.30
2022-11-29T04:55:30.475Z,2.65
2022-11-29T04:58:22.854Z,2.35
2022-11-29T05:01:07.949Z,2.42
2022-11-29T05:03:41.684Z,2.45
2022-11-29T05:06:19.094Z,2.00
2022-11-29T05:08:59.379Z,2.33
2022-11-29T05:11:35.003Z,2.55
2022-11-29T05:14:17.540Z,2.20
2022-11-29T05:16:48.823Z,2.53
2022-11-29T05:19:41.483Z,3.20
2022-11-29T05:22:34.110Z,8.07
2022-11-29T05:25:30.363Z,6.20
2022-11-29T05:28:10.014Z,5.38
2022-11-29T05:31:18.764Z,4.07
2022-11-29T05:33:45.154Z,4.43
2022-11-29T05:36:29.862Z,5.65
2022-11-29T05:39:15.812Z,5.63
2022-11-29T05:41:56.747Z,5.95
2022-11-29T05:44:35.535Z,3.33
2022-11-29T05:47:05.928Z,2.60
2022-11-29T05:49:44.751Z,2.25
2022-11-29T05:52:39.212Z,2.40
2022-11-29T05:55:15.027Z,2.10
2022-11-29T05:58:08.390Z,3.00
2022-11-29T06:00:45.958Z,2.83
2022-11-29T06:03:24.007Z,2.40
2022-11-29T06:05:58.323Z,2.90
2022-11-29T06:08:44.522Z,2.33
2022-11-29T06:11:16.487Z,2.40
2022-11-29T06:14:07.942Z,2.90
2022-11-29T06:16:56.929Z,2.90
2022-11-29T06:19:59.674Z,3.90
2022-11-29T06:22:48.921Z,3.25
2022-11-29T06:25:41.827Z,2.83
2022-11-29T06:28:41.720Z,2.05
2022-11-29T06:31:29.527Z,2.55
2022-11-29T06:34:09.228Z,3.75
2022-11-29T06:37:08.653Z,3.50
2022-11-29T06:39:35.583Z,3.90
2022-11-29T06:42:02.185Z,3.88
2022-11-29T06:47:01.084Z,3.00
2022-11-29T06:49:35.600Z,3.95
2022-11-29T06:52:26.488Z,3.03
2022-11-29T06:55:07.561Z,3.10
2022-11-29T06:57:36.919Z,3.03
2022-11-29T07:00:16.298Z,3.50
2022-11-29T07:03:20.202Z,4.00
2022-11-29T07:05:47.351Z,3.33
2022-11-29T07:08:19.982Z,4.00
2022-11-29T07:10:49.940Z,3.83
2022-11-29T07:13:18.028Z,5.15
2022-11-29T07:16:07.077Z,4.38
2022-11-29T07:18:39.264Z,4.68
2022-11-29T07:21:16.712Z,6.63
2022-11-29T07:24:04.547Z,6.85
2022-11-29T07:26:43.593Z,4.18
2022-11-29T07:29:25.264Z,3.65
2022-11-29T07:32:34.348Z,3.45
2022-11-29T07:35:08.662Z,5.53
2022-11-29T07:37:57.588Z,4.97
2022-11-29T07:40:24.183Z,5.43
2022-11-29T07:45:27.385Z,4.72
2022-11-29T07:47:54.111Z,5.13
2022-11-29T07:50:21.691Z,4.68
2022-11-29T07:52:48.708Z,5.78
2022-11-29T07:55:19.152Z,7.40
2022-11-29T07:57:46.553Z,9.88
2022-11-29T08:00:13.933Z,8.88
2022-11-29T08:02:41.770Z,6.95
2022-11-29T08:05:09.227Z,7.20
2022-11-29T08:07:37.816Z,7.45
2022-11-29T08:10:07.156Z,7.38
2022-11-29T08:12:33.570Z,8.63
2022-11-29T08:15:00.153Z,11.05
2022-11-29T08:19:53.076Z,10.02
2022-11-29T08:22:19.888Z,11.35
2022-11-29T08:24:46.555Z,8.30
2022-11-29T08:27:13.249Z,7.70
2022-11-29T08:29:39.719Z,6.95
2022-11-29T08:34:34.083Z,6.53
2022-11-29T08:39:26.894Z,6.30
2022-11-29T08:41:53.298Z,6.55
2022-11-29T08:44:20.091Z,6.80
2022-11-29T08:47:04.960Z,6.05
2022-11-29T08:49:31.381Z,5.07
2022-11-29T08:52:17.743Z,5.30
2022-11-29T08:54:44.690Z,6.53
2022-11-29T08:57:38.390Z,6.35
2022-11-29T08:59:57.709Z,4.82
2022-11-29T09:02:26.701Z,4.95
2022-11-29T09:04:53.139Z,4.38
2022-11-29T09:07:19.590Z,5.10
2022-11-29T09:12:12.527Z,5.47
2022-11-29T09:14:38.905Z,5.70
2022-11-29T09:17:05.431Z,5.78
2022-11-29T09:21:58.708Z,6.25
2022-11-29T09:24:25.233Z,6.43
2022-11-29T09:29:18.859Z,5.33
2022-11-29T09:34:16.087Z,4.95
2022-11-29T09:36:44.137Z,5.03
2022-11-29T09:39:12.373Z,4.97
2022-11-29T09:42:06.242Z,4.05
2022-11-29T09:44:35.457Z,3.67
2022-11-29T09:47:20.515Z,3.60
2022-11-29T09:50:21.228Z,3.78
2022-11-29T09:53:09.437Z,2.97
2022-11-29T09:55:50.136Z,3.53
2022-11-29T09:58:21.574Z,3.13
2022-11-29T10:00:58.509Z,3.80
2022-11-29T10:03:45.163Z,4.32
2022-11-29T10:06:22.086Z,4.10
2022-11-29T10:08:55.703Z,3.40
2022-11-29T10:11:32.889Z,3.75
2022-11-29T10:14:24.494Z,3.55
2022-11-29T10:17:13.746Z,4.13
2022-11-29T10:19:47.431Z,4.03
2022-11-29T10:22:31.362Z,4.05
2022-11-29T10:25:01.351Z,4.25
2022-11-29T10:27:29.495Z,4.35
2022-11-29T10:29:59.136Z,4.57
2022-11-29T10:32:26.096Z,4.28
2022-11-29T10:34:52.744Z,5.15
2022-11-29T10:37:21.460Z,5.18
2022-11-29T10:39:58.529Z,5.30
2022-11-29T10:42:46.869Z,5.38
2022-11-29T10:45:35.050Z,4.75
2022-11-29T10:48:04.153Z,4.45
2022-11-29T10:50:33.623Z,4.50
2022-11-29T10:53:09.441Z,4.75
2022-11-29T10:55:46.825Z,4.68
2022-11-29T10:58:28.402Z,4.68
2022-11-29T11:00:57.218Z,4.28
2022-11-29T11:03:43.323Z,5.40
2022-11-29T11:06:14.271Z,6.40
2022-11-29T11:08:44.840Z,5.68
2022-11-29T11:11:12.144Z,5.47
2022-11-29T11:13:40.796Z,6.10
2022-11-29T11:16:14.454Z,5.70
2022-11-29T11:18:41.316Z,5.63
2022-11-29T11:21:11.005Z,5.25
2022-11-29T11:23:45.447Z,5.85
2022-11-29T11:26:13.504Z,5.18
2022-11-29T11:29:02.281Z,5.40
2022-11-29T11:31:35.418Z,4.55
2022-11-29T11:34:34.241Z,4.80
2022-11-29T11:37:22.095Z,4.60
2022-11-29T11:42:39.029Z,5.53
2022-11-29T11:45:11.486Z,5.65
2022-11-29T11:47:44.011Z,5.88
2022-11-29T11:50:16.606Z,5.30
2022-11-29T11:52:53.791Z,6.60
2022-11-29T11:58:12.771Z,5.38
2022-11-29T12:03:31.414Z,6.05
2022-11-29T12:06:07.988Z,5.53
2022-11-29T12:08:36.626Z,6.90
2022-11-29T12:11:07.736Z,6.57
2022-11-29T12:13:39.800Z,5.97
2022-11-29T12:16:14.432Z,6.18
2022-11-29T12:18:47.603Z,6.28
2022-11-29T12:21:22.932Z,5.30
2022-11-29T12:23:59.952Z,5.32
2022-11-29T12:29:19.608Z,5.47
2022-11-29T12:32:04.321Z,5.22
2022-11-29T12:34:43.473Z,5.60
2022-11-29T12:37:31.367Z,5.18
2022-11-29T12:42:55.131Z,5.68
2022-11-29T12:45:33.011Z,3.83
2022-11-29T12:48:14.535Z,3.83
2022-11-29T12:51:06.006Z,3.05
2022-11-29T12:53:43.748Z,3.00
2022-11-29T12:56:25.759Z,3.67
2022-11-29T12:59:28.770Z,4.13
2022-11-29T13:02:16.055Z,3.80
2022-11-29T13:05:19.412Z,3.67
2022-11-29T13:07:48.727Z,3.47
2022-11-29T13:10:39.901Z,3.85
2022-11-29T13:13:25.462Z,3.30
2022-11-29T13:16:06.682Z,3.20
2022-11-29T13:18:47.278Z,4.05
2022-11-29T13:21:25.888Z,4.25
2022-11-29T13:24:42.978Z,3.40
2022-11-29T13:27:18.251Z,3.40
2022-11-29T13:29:46.260Z,4.30
2022-11-29T13:32:36.332Z,3.92
2022-11-29T13:35:20.184Z,4.13
2022-11-29T13:38:08.540Z,3.67
2022-11-29T13:40:51.803Z,4.13
2022-11-29T13:43:30.295Z,4.78
2022-11-29T13:46:16.862Z,4.68
2022-11-29T13:48:47.589Z,7.00
2022-11-29T13:51:34.391Z,5.22
2022-11-29T13:54:04.808Z,5.30
2022-11-29T13:56:47.824Z,5.25
2022-11-29T13:59:31.624Z,4.82
2022-11-29T14:01:59.145Z,5.68
2022-11-29T14:04:33.682Z,5.75
2022-11-29T14:07:18.364Z,5.60
2022-11-29T14:09:50.658Z,5.22
2022-11-29T14:12:35.900Z,5.80
2022-11-29T14:15:31.663Z,5.95
2022-11-29T14:18:03.511Z,5.60
2022-11-29T14:20:29.920Z,5.80
2022-11-29T14:23:05.395Z,6.10
2022-11-29T14:25:51.103Z,6.95
2022-11-29T14:28:18.239Z,6.05
2022-11-29T14:30:44.560Z,6.95
2022-11-29T14:33:38.501Z,7.63
2022-11-29T14:36:43.595Z,7.72
2022-11-29T14:39:13.043Z,6.10
2022-11-29T14:41:54.510Z,6.00
2022-11-29T14:44:28.024Z,6.35
2022-11-29T14:47:02.263Z,5.60
2022-11-29T14:49:30.115Z,4.80
2022-11-29T14:52:26.088Z,5.57
2022-11-29T14:55:01.774Z,5.43
2022-11-29T14:57:52.787Z,5.38
2022-11-29T15:00:30.383Z,4.72
2022-11-29T15:03:20.514Z,5.70
2022-11-29T15:05:59.438Z,5.55
2022-11-29T15:08:36.625Z,6.40
2022-11-29T15:11:11.687Z,5.50
2022-11-29T15:14:04.690Z,5.45
2022-11-29T15:17:20.057Z,5.70
2022-11-29T15:20:23.668Z,5.78
2022-11-29T15:22:55.152Z,6.22
2022-11-29T15:25:28.233Z,7.10
2022-11-29T15:27:57.447Z,6.78
2022-11-29T15:30:39.047Z,7.22
2022-11-29T15:33:27.307Z,8.45
2022-11-29T15:36:24.246Z,7.50
2022-11-29T15:38:55.365Z,7.10
2022-11-29T15:41:31.796Z,7.43
2022-11-29T15:44:04.682Z,7.38
2022-11-29T15:46:33.303Z,8.20
2022-11-29T15:49:30.578Z,7.80
2022-11-29T15:52:05.955Z,7.57
2022-11-29T15:54:41.994Z,8.05
2022-11-29T15:57:33.099Z,7.28
2022-11-29T16:00:02.809Z,8.82
2022-11-29T16:02:34.481Z,9.63
2022-11-29T16:05:19.464Z,9.18
2022-11-29T16:07:49.281Z,7.75
2022-11-29T16:10:34.867Z,7.18
2022-11-29T16:13:36.825Z,7.03
2022-11-29T16:16:06.153Z,7.20
2022-11-29T16:18:33.506Z,6.97
2022-11-29T16:21:01.553Z,6.45
2022-11-29T16:23:41.216Z,6.28
2022-11-29T16:26:18.976Z,11.73
2022-11-29T16:28:48.294Z,9.05
2022-11-29T16:31:18.132Z,6.07
2022-11-29T16:33:47.341Z,5.93
2022-11-29T16:36:20.614Z,5.95
2022-11-29T16:38:50.171Z,6.75
2022-11-29T16:41:37.565Z,7.10
2022-11-29T16:44:06.406Z,7.28
2022-11-29T16:46:39.758Z,7.43
2022-11-29T16:49:35.025Z,8.02
2022-11-29T16:52:03.747Z,9.13
2022-11-29T16:54:34.009Z,9.30
2022-11-29T16:57:05.108Z,9.52
2022-11-29T16:59:32.442Z,9.88
2022-11-29T17:01:59.032Z,9.88
2022-11-29T17:04:27.442Z,11.18
2022-11-29T17:06:55.805Z,10.00
2022-11-29T17:09:27.748Z,9.07
2022-11-29T17:11:55.654Z,9.60
2022-11-29T17:14:22.184Z,8.63
2022-11-29T17:16:49.585Z,8.55
2022-11-29T17:19:16.518Z,8.63
2022-11-29T17:21:43.131Z,9.10
2022-11-29T17:26:37.752Z,8.77
2022-11-29T17:29:04.181Z,8.27
2022-11-29T17:31:31.353Z,7.97
2022-11-29T17:34:01.631Z,8.75
2022-11-29T17:36:28.593Z,7.18
2022-11-29T17:38:55.019Z,7.63
2022-11-29T17:41:23.691Z,7.45
2022-11-29T17:43:52.971Z,7.38
2022-11-29T17:46:26.499Z,7.90
2022-11-29T17:48:54.809Z,7.70
2022-11-29T17:51:50.577Z,7.57
2022-11-29T17:54:10.300Z,9.05
2022-11-29T17:56:37.015Z,8.02
2022-11-29T17:59:04.883Z,8.98
2022-11-29T18:01:34.039Z,8.15
2022-11-29T18:04:03.179Z,7.60
2022-11-29T18:06:34.121Z,7.88
2022-11-29T18:09:01.684Z,8.82
2022-11-29T18:11:30.998Z,9.43
2022-11-29T18:13:58.892Z,10.60
2022-11-29T18:16:31.236Z,9.65
2022-11-29T18:19:10.505Z,10.00
2022-11-29T18:21:38.199Z,9.98
2022-11-29T18:24:06.042Z,12.10
2022-11-29T18:26:34.413Z,10.05
2022-11-29T18:29:00.979Z,11.90
2022-11-29T18:34:00.636Z,12.35
2022-11-29T18:36:32.174Z,13.80
2022-11-29T18:39:01.222Z,12.32
2022-11-29T18:41:29.890Z,12.05
2022-11-29T18:43:58.911Z,12.15
2022-11-29T18:46:26.598Z,12.02
2022-11-29T18:48:53.084Z,12.52
2022-11-29T18:51:20.192Z,11.25
2022-11-29T18:53:47.310Z,12.48
2022-11-29T18:56:20.002Z,11.10
2022-11-29T18:58:48.037Z,11.30
2022-11-29T19:01:17.287Z,12.10
2022-11-29T19:03:46.161Z,11.43
2022-11-29T19:06:15.511Z,12.10
2022-11-29T19:08:43.180Z,11.07
2022-11-29T19:11:17.842Z,11.63
2022-11-29T19:13:44.620Z,12.48
2022-11-29T19:16:15.525Z,12.20
2022-11-29T19:18:42.558Z,12.07
2022-11-29T19:21:16.465Z,12.70
2022-11-29T19:23:44.311Z,12.80
2022-11-29T19:26:13.563Z,14.30
2022-11-29T19:28:45.367Z,12.70
2022-11-29T19:31:14.292Z,12.73
2022-11-29T19:33:43.627Z,11.68
2022-11-29T19:36:17.825Z,13.45
2022-11-29T19:38:50.141Z,12.45
2022-11-29T19:41:22.331Z,26.90
2022-11-29T19:43:49.410Z,17.40
2022-11-29T19:46:22.004Z,14.00
2022-11-29T19:48:49.295Z,13.52
2022-11-29T19:51:19.416Z,13.15
2022-11-29T19:53:47.140Z,14.38
2022-11-29T19:56:17.502Z,13.40
2022-11-29T19:58:44.325Z,14.70
2022-11-29T20:01:17.278Z,12.40
2022-11-29T20:03:45.196Z,12.48
2022-11-29T20:06:13.392Z,12.50
2022-11-29T20:08:40.846Z,12.18
2022-11-29T20:11:19.376Z,12.10
2022-11-29T20:13:48.094Z,12.32
2022-11-29T20:16:18.218Z,12.80
2022-11-29T20:18:50.966Z,13.50
2022-11-29T20:21:28.104Z,11.95
2022-11-29T20:23:59.998Z,12.20
2022-11-29T20:26:30.866Z,12.25
2022-11-29T20:28:57.759Z,11.15
2022-11-29T20:31:25.204Z,11.18
2022-11-29T20:33:53.786Z,11.60
2022-11-29T20:36:48.165Z,10.38
2022-11-29T20:39:37.656Z,10.50
2022-11-29T20:42:29.122Z,10.82
2022-11-29T20:44:59.258Z,11.05
2022-11-29T20:47:28.414Z,10.23
2022-11-29T20:49:55.257Z,11.35
2022-11-29T20:52:45.701Z,11.10
2022-11-29T20:55:12.203Z,13.20
2022-11-29T20:57:38.695Z,13.05
2022-11-29T21:00:11.533Z,12.75
2022-11-29T21:02:38.795Z,11.93
2022-11-29T21:05:06.150Z,11.05
2022-11-29T21:07:32.724Z,11.77
2022-11-29T21:12:29.617Z,10.52
2022-11-29T21:14:57.020Z,11.48
2022-11-29T21:17:27.540Z,11.13
2022-11-29T21:19:58.699Z,11.73
2022-11-29T21:23:00.719Z,11.13
2022-11-29T21:25:40.585Z,11.80
2022-11-29T21:28:12.812Z,11.00
2022-11-29T21:30:41.518Z,11.90
2022-11-29T21:33:10.000Z,11.93
2022-11-29T21:35:39.765Z,14.10
2022-11-29T21:38:10.048Z,13.93
2022-11-29T21:40:36.472Z,13.43
2022-11-29T21:43:02.864Z,13.82
2022-11-29T21:45:29.311Z,14.90
2022-11-29T21:47:59.502Z,14.60
2022-11-29T21:50:28.780Z,14.30
2022-11-29T21:52:56.911Z,12.75
2022-11-29T21:55:31.417Z,12.65
2022-11-29T21:57:58.670Z,12.18
2022-11-29T22:02:51.650Z,15.35
2022-11-29T22:07:44.434Z,11.98
2022-11-29T22:10:13.650Z,12.48
2022-11-29T22:12:45.911Z,13.20
2022-11-29T22:15:22.952Z,13.38
2022-11-29T22:17:52.188Z,15.55
2022-11-29T22:22:47.521Z,15.25
2022-11-29T22:25:14.653Z,16.75
2022-11-29T22:27:41.071Z,16.13
2022-11-29T22:30:08.984Z,17.10
2022-11-29T22:32:35.483Z,17.02
2022-11-29T22:35:01.862Z,16.27
2022-11-29T22:37:28.316Z,18.15
2022-11-29T22:39:54.772Z,17.75
2022-11-29T22:42:21.175Z,18.48
2022-11-29T22:44:48.072Z,21.60
2022-11-29T22:47:14.620Z,20.35
2022-11-29T22:49:41.030Z,19.00
2022-11-29T22:52:07.509Z,16.08
2022-11-29T22:54:33.898Z,17.13
2022-11-29T22:57:00.334Z,16.20
2022-11-29T22:59:26.699Z,16.40
2022-11-29T23:01:53.182Z,17.60
2022-11-29T23:04:19.565Z,16.75
2022-11-29T23:06:46.270Z,16.80
2022-11-29T23:09:19.831Z,16.63
2022-11-29T23:11:52.733Z,17.20
2022-11-29T23:14:20.114Z,16.90
2022-11-29T23:16:46.948Z,17.40
2022-11-29T23:19:16.011Z,16.95
2022-11-29T23:21:44.610Z,16.25
2022-11-29T23:24:11.405Z,16.95
2022-11-29T23:26:41.098Z,16.10
2022-11-29T23:29:10.530Z,16.35
2022-11-29T23:31:36.997Z,16.10
2022-11-29T23:34:03.577Z,16.30
2022-11-29T23:38:56.410Z,15.02
2022-11-29T23:41:22.888Z,16.17
2022-11-29T23:43:49.301Z,13.93
2022-11-29T23:46:21.271Z,15.95
2022-11-29T23:48:48.351Z,16.70
2022-11-29T23:51:16.184Z,14.50
2022-11-29T23:53:43.044Z,15.23
2022-11-29T23:56:15.059Z,14.48
2022-11-29T23:58:42.210Z,14.63
